createdAt,value
2023-04-09T00:01:09.060Z,41.30
2023-04-09T00:02:11.491Z,41.30
2023-04-09T00:03:14.016Z,41.20
2023-04-09T00:04:16.544Z,41.40
2023-04-09T00:05:19.071Z,41.20
2023-04-09T00:06:21.534Z,41.00
2023-04-09T00:07:23.956Z,41.00
2023-04-09T00:08:26.760Z,41.10
2023-04-09T00:09:29.215Z,40.80
2023-04-09T00:10:31.636Z,40.90
2023-04-09T00:11:34.060Z,41.00
2023-04-09T00:12:37.836Z,41.00
2023-04-09T00:13:40.437Z,41.00
2023-04-09T00:14:42.870Z,41.00
2023-04-09T00:15:46.522Z,40.90
2023-04-09T00:16:48.996Z,41.30
2023-04-09T00:17:52.388Z,41.70
2023-04-09T00:18:55.086Z,42.00
2023-04-09T00:19:57.710Z,41.90
2023-04-09T00:21:00.847Z,42.10
2023-04-09T00:22:03.626Z,41.70
2023-04-09T00:23:06.352Z,41.70
2023-04-09T00:24:09.189Z,42.10
2023-04-09T00:25:11.668Z,42.20
2023-04-09T00:26:14.183Z,41.80
2023-04-09T00:27:17.648Z,41.90
2023-04-09T00:28:20.156Z,42.10
2023-04-09T00:29:22.832Z,41.90
2023-04-09T00:30:31.425Z,42.10
2023-04-09T00:31:34.586Z,42.00
2023-04-09T00:32:37.646Z,41.90
2023-04-09T00:33:44.934Z,41.60
2023-04-09T00:34:47.727Z,41.90
2023-04-09T00:35:50.362Z,41.80
2023-04-09T00:36:52.981Z,41.10
2023-04-09T00:37:55.427Z,41.60
2023-04-09T00:38:58.873Z,42.30
2023-04-09T00:40:01.538Z,41.90
2023-04-09T00:41:04.244Z,41.40
2023-04-09T00:42:06.751Z,41.90
2023-04-09T00:43:09.520Z,41.50
2023-04-09T00:44:12.044Z,41.20
2023-04-09T00:45:14.636Z,41.60
2023-04-09T00:46:18.110Z,41.80
2023-04-09T00:47:21.010Z,41.30
2023-04-09T00:48:23.758Z,42.30
2023-04-09T00:49:26.633Z,42.10
2023-04-09T00:50:29.022Z,42.50
2023-04-09T00:51:31.747Z,40.50
2023-04-09T00:52:34.422Z,39.90
2023-04-09T00:53:37.009Z,40.10
2023-04-09T00:54:39.679Z,40.20
2023-04-09T00:55:42.155Z,40.00
2023-04-09T00:56:45.482Z,40.20
2023-04-09T00:57:48.058Z,40.20
2023-04-09T00:58:51.158Z,40.30
2023-04-09T00:59:53.980Z,40.20
2023-04-09T01:00:56.730Z,40.20
2023-04-09T01:01:59.396Z,41.40
2023-04-09T01:03:04.769Z,41.10
2023-04-09T01:04:07.388Z,41.20
2023-04-09T01:05:11.339Z,41.00
2023-04-09T01:06:38.644Z,41.00
2023-04-09T01:08:03.864Z,40.30
2023-04-09T01:09:28.556Z,40.50
2023-04-09T01:10:42.724Z,40.50
2023-04-09T01:12:08.763Z,40.70
2023-04-09T01:13:20.369Z,40.60
2023-04-09T01:14:59.942Z,41.10
2023-04-09T01:16:03.825Z,40.70
2023-04-09T01:17:35.260Z,41.20
2023-04-09T01:18:52.933Z,40.90
2023-04-09T01:20:13.118Z,40.80
2023-04-09T01:21:20.514Z,41.50
2023-04-09T01:22:53.641Z,42.00
2023-04-09T01:24:13.393Z,42.00
2023-04-09T01:25:34.777Z,41.60
2023-04-09T01:26:55.498Z,42.10
2023-04-09T01:28:24.184Z,40.60
2023-04-09T01:29:32.096Z,41.00
2023-04-09T01:30:35.790Z,40.50
2023-04-09T01:31:40.083Z,41.20
2023-04-09T01:32:45.263Z,40.60
2023-04-09T01:33:48.268Z,40.40
2023-04-09T01:34:51.535Z,40.60
2023-04-09T01:35:55.189Z,40.60
2023-04-09T01:37:02.690Z,41.70
2023-04-09T01:38:05.458Z,41.50
2023-04-09T01:39:08.674Z,41.30
2023-04-09T01:40:11.565Z,41.30
2023-04-09T01:41:18.027Z,41.30
2023-04-09T01:42:21.547Z,41.20
2023-04-09T01:43:25.836Z,41.30
2023-04-09T01:44:29.076Z,41.10
2023-04-09T01:45:32.663Z,41.30
2023-04-09T01:46:36.777Z,41.40
2023-04-09T01:47:40.053Z,42.10
2023-04-09T01:48:43.849Z,41.10
2023-04-09T01:49:46.580Z,41.60
2023-04-09T01:50:50.523Z,42.20
2023-04-09T01:51:53.213Z,41.40
2023-04-09T01:52:56.239Z,41.10
2023-04-09T01:53:59.424Z,40.80
2023-04-09T01:55:02.353Z,39.80
2023-04-09T01:56:06.168Z,40.90
2023-04-09T01:57:08.651Z,40.30
2023-04-09T01:58:13.924Z,39.60
2023-04-09T01:59:16.576Z,39.70
2023-04-09T02:00:19.366Z,39.80
2023-04-09T02:01:32.599Z,40.00
2023-04-09T02:02:49.043Z,39.80
2023-04-09T02:03:56.617Z,40.20
2023-04-09T02:05:03.375Z,40.80
2023-04-09T02:06:17.023Z,40.70
2023-04-09T02:07:31.588Z,40.50
2023-04-09T02:08:35.585Z,40.50
2023-04-09T02:09:42.355Z,41.00
2023-04-09T02:10:53.609Z,41.00
2023-04-09T02:11:58.786Z,41.40
2023-04-09T02:13:03.262Z,40.80
2023-04-09T02:14:11.174Z,40.90
2023-04-09T02:15:14.508Z,40.90
2023-04-09T02:16:17.918Z,41.20
2023-04-09T02:17:20.940Z,41.80
2023-04-09T02:18:25.772Z,42.10
2023-04-09T02:19:41.497Z,40.80
2023-04-09T02:20:43.964Z,41.50
2023-04-09T02:21:47.226Z,41.20
2023-04-09T02:22:49.773Z,40.40
2023-04-09T02:23:52.571Z,40.40
2023-04-09T02:24:55.128Z,40.40
2023-04-09T02:25:57.739Z,40.60
2023-04-09T02:27:00.363Z,41.00
2023-04-09T02:28:05.541Z,41.00
2023-04-09T02:29:08.107Z,40.40
2023-04-09T02:30:11.156Z,40.40
2023-04-09T02:31:14.326Z,40.20
2023-04-09T02:46:41.315Z,40.80
2023-04-09T02:50:22.852Z,41.00
2023-04-09T02:51:28.352Z,40.80
2023-04-09T02:52:31.102Z,41.50
2023-04-09T02:53:33.910Z,41.10
2023-04-09T02:54:36.555Z,41.00
2023-04-09T02:55:39.071Z,41.30
2023-04-09T02:56:43.755Z,40.80
2023-04-09T02:57:48.492Z,40.80
2023-04-09T02:58:54.377Z,40.90
2023-04-09T02:59:57.607Z,41.40
2023-04-09T03:01:00.325Z,41.30
2023-04-09T03:02:02.891Z,41.40
2023-04-09T03:03:05.684Z,41.20
2023-04-09T03:04:08.411Z,41.20
2023-04-09T03:05:11.098Z,41.50
2023-04-09T03:06:13.712Z,41.90
2023-04-09T03:07:16.281Z,42.10
2023-04-09T03:08:18.790Z,42.50
2023-04-09T03:09:21.234Z,42.50
2023-04-09T03:10:24.627Z,42.40
2023-04-09T03:11:27.173Z,42.30
2023-04-09T03:12:29.640Z,42.10
2023-04-09T03:13:32.125Z,42.00
2023-04-09T03:14:35.317Z,42.50
2023-04-09T03:15:38.071Z,42.50
2023-04-09T03:16:40.505Z,42.10
2023-04-09T03:17:43.050Z,41.80
2023-04-09T03:18:45.676Z,41.90
2023-04-09T03:19:48.620Z,41.80
2023-04-09T03:20:51.930Z,41.70
2023-04-09T03:21:54.492Z,41.90
2023-04-09T03:23:00.595Z,41.60
2023-04-09T03:24:14.284Z,41.70
2023-04-09T03:25:19.433Z,41.90
2023-04-09T03:26:22.284Z,41.90
2023-04-09T03:27:25.952Z,41.90
2023-04-09T03:28:32.053Z,42.20
2023-04-09T03:29:34.665Z,41.80
2023-04-09T03:30:37.313Z,42.00
2023-04-09T03:31:42.028Z,42.00
2023-04-09T03:32:44.676Z,41.90
2023-04-09T03:33:49.020Z,41.70
2023-04-09T03:34:53.679Z,41.80
2023-04-09T03:35:58.133Z,41.90
2023-04-09T03:37:17.534Z,41.90
2023-04-09T03:38:20.555Z,41.90
2023-04-09T03:39:22.977Z,41.90
2023-04-09T03:40:25.529Z,41.90
2023-04-09T03:41:27.939Z,42.10
2023-04-09T03:42:32.016Z,42.10
2023-04-09T03:43:34.829Z,42.20
2023-04-09T03:44:37.226Z,42.40
2023-04-09T03:45:45.629Z,42.30
2023-04-09T03:46:57.095Z,42.30
2023-04-09T03:48:00.855Z,42.30
2023-04-09T03:49:03.361Z,42.30
2023-04-09T03:50:16.687Z,42.40
2023-04-09T03:51:28.506Z,42.30
2023-04-09T03:52:34.004Z,42.30
2023-04-09T03:53:41.952Z,42.40
2023-04-09T03:54:45.300Z,42.40
2023-04-09T03:55:52.690Z,42.60
2023-04-09T03:56:59.771Z,42.50
2023-04-09T03:58:02.202Z,42.80
2023-04-09T03:59:07.828Z,42.80
2023-04-09T04:00:17.199Z,42.60
2023-04-09T04:01:38.919Z,42.60
2023-04-09T04:02:41.871Z,42.50
2023-04-09T04:03:45.502Z,42.70
2023-04-09T04:05:04.009Z,42.70
2023-04-09T04:06:12.317Z,42.90
2023-04-09T04:07:37.516Z,42.80
2023-04-09T04:08:44.984Z,42.90
2023-04-09T04:09:47.869Z,43.00
2023-04-09T04:10:52.799Z,43.10
2023-04-09T04:11:58.999Z,42.90
2023-04-09T04:13:15.316Z,43.00
2023-04-09T04:14:31.644Z,43.00
2023-04-09T04:15:43.087Z,43.00
2023-04-09T04:16:47.962Z,43.10
2023-04-09T04:17:54.802Z,43.10
2023-04-09T04:19:09.680Z,43.10
2023-04-09T04:20:18.222Z,43.20
2023-04-09T04:21:33.287Z,39.70
2023-04-09T04:22:37.697Z,38.70
2023-04-09T04:23:40.984Z,40.00
2023-04-09T04:24:56.228Z,41.10
2023-04-09T04:25:59.357Z,41.70
2023-04-09T04:27:06.842Z,42.30
2023-04-09T04:28:11.142Z,42.70
2023-04-09T04:29:16.930Z,43.00
2023-04-09T04:30:42.699Z,43.10
2023-04-09T04:31:45.750Z,43.00
2023-04-09T04:32:50.786Z,43.10
2023-04-09T04:33:53.169Z,43.00
2023-04-09T04:34:55.687Z,43.00
2023-04-09T04:36:09.227Z,43.10
2023-04-09T04:37:15.968Z,43.20
2023-04-09T04:38:18.834Z,43.00
2023-04-09T04:39:21.219Z,43.10
2023-04-09T04:40:43.920Z,43.10
2023-04-09T04:41:46.425Z,43.10
2023-04-09T04:42:53.953Z,43.20
2023-04-09T04:43:57.300Z,43.00
2023-04-09T04:45:00.907Z,43.20
2023-04-09T04:46:20.726Z,43.10
2023-04-09T04:47:23.860Z,43.30
2023-04-09T04:48:28.088Z,43.30
2023-04-09T04:49:31.715Z,43.20
2023-04-09T04:50:35.673Z,43.10
2023-04-09T04:51:42.620Z,43.20
2023-04-09T04:52:48.308Z,43.20
2023-04-09T04:53:50.774Z,43.30
2023-04-09T04:54:54.050Z,43.20
2023-04-09T04:55:59.024Z,43.20
2023-04-09T04:57:03.426Z,43.10
2023-04-09T04:58:12.935Z,43.10
2023-04-09T04:59:22.986Z,43.10
2023-04-09T05:00:33.767Z,43.10
2023-04-09T05:01:38.584Z,43.10
2023-04-09T05:02:44.703Z,43.10
2023-04-09T05:03:47.638Z,43.00
2023-04-09T05:05:04.177Z,43.20
2023-04-09T05:06:15.220Z,43.10
2023-04-09T05:07:20.416Z,43.10
2023-04-09T05:08:29.180Z,43.10
2023-04-09T05:09:32.958Z,43.10
2023-04-09T05:10:42.883Z,43.10
2023-04-09T05:11:46.377Z,43.00
2023-04-09T05:12:54.018Z,43.00
2023-04-09T05:14:04.930Z,43.00
2023-04-09T05:15:08.295Z,42.90
2023-04-09T05:16:19.670Z,43.00
2023-04-09T05:17:28.972Z,42.90
2023-04-09T05:18:31.486Z,42.90
2023-04-09T05:19:33.865Z,42.90
2023-04-09T05:20:38.690Z,42.90
2023-04-09T05:21:47.166Z,42.90
2023-04-09T05:22:55.439Z,42.90
2023-04-09T05:24:04.737Z,42.90
2023-04-09T05:25:09.280Z,42.90
2023-04-09T05:26:14.340Z,42.90
2023-04-09T05:27:27.640Z,43.00
2023-04-09T05:28:35.023Z,42.90
2023-04-09T05:29:46.808Z,42.80
2023-04-09T05:30:50.391Z,42.90
2023-04-09T05:31:53.989Z,42.90
2023-04-09T05:33:02.601Z,42.80
2023-04-09T05:34:06.602Z,42.90
2023-04-09T05:35:13.705Z,42.90
2023-04-09T05:36:19.795Z,42.90
2023-04-09T05:37:22.213Z,42.90
2023-04-09T05:38:27.296Z,42.90
2023-04-09T05:39:33.477Z,43.00
2023-04-09T05:40:37.289Z,42.80
2023-04-09T05:41:46.593Z,42.90
2023-04-09T05:43:07.986Z,43.00
2023-04-09T05:44:15.328Z,42.90
2023-04-09T05:45:18.605Z,42.90
2023-04-09T05:46:27.451Z,42.90
2023-04-09T05:47:30.496Z,42.90
2023-04-09T05:48:38.295Z,42.80
2023-04-09T05:49:41.592Z,42.80
2023-04-09T05:50:55.570Z,42.80
2023-04-09T05:52:01.362Z,42.80
2023-04-09T05:53:07.481Z,42.90
2023-04-09T05:54:14.918Z,42.90
2023-04-09T05:55:17.724Z,42.90
2023-04-09T05:56:27.098Z,42.80
2023-04-09T05:57:32.694Z,42.90
2023-04-09T05:58:38.485Z,42.90
2023-04-09T05:59:41.146Z,42.80
2023-04-09T06:00:43.678Z,42.90
2023-04-09T06:01:46.445Z,43.00
2023-04-09T06:02:49.073Z,43.00
2023-04-09T06:03:52.860Z,42.80
2023-04-09T06:04:57.377Z,42.80
2023-04-09T06:06:00.661Z,42.80
2023-04-09T06:07:03.550Z,42.90
2023-04-09T06:08:06.195Z,42.90
2023-04-09T06:09:08.817Z,43.10
2023-04-09T06:10:13.317Z,43.00
2023-04-09T06:11:15.959Z,43.00
2023-04-09T06:12:18.629Z,42.90
2023-04-09T06:13:21.477Z,43.20
2023-04-09T06:14:24.129Z,43.10
2023-04-09T06:15:27.601Z,43.10
2023-04-09T06:16:30.555Z,43.00
2023-04-09T06:17:33.222Z,43.00
2023-04-09T06:18:36.845Z,42.90
2023-04-09T06:19:39.796Z,43.20
2023-04-09T06:20:45.342Z,43.20
2023-04-09T06:21:47.873Z,43.00
2023-04-09T06:22:50.335Z,43.00
2023-04-09T06:23:53.890Z,42.90
2023-04-09T06:24:57.064Z,42.90
2023-04-09T06:26:00.908Z,43.30
2023-04-09T06:27:03.304Z,43.20
2023-04-09T06:28:05.737Z,43.10
2023-04-09T06:29:08.063Z,42.90
2023-04-09T06:30:11.745Z,43.10
2023-04-09T06:31:15.551Z,43.10
2023-04-09T06:32:18.289Z,43.00
2023-04-09T06:33:21.051Z,43.00
2023-04-09T06:34:23.480Z,43.00
2023-04-09T06:35:26.277Z,43.10
2023-04-09T06:36:28.677Z,43.00
2023-04-09T06:37:31.099Z,43.00
2023-04-09T06:38:33.399Z,42.90
2023-04-09T06:39:37.409Z,43.30
2023-04-09T06:40:41.466Z,43.10
2023-04-09T06:41:44.275Z,43.10
2023-04-09T06:42:58.934Z,43.00
2023-04-09T06:44:12.055Z,43.30
2023-04-09T06:45:14.420Z,42.90
2023-04-09T06:46:20.073Z,43.10
2023-04-09T06:47:22.745Z,42.90
2023-04-09T06:48:25.298Z,43.40
2023-04-09T06:49:27.686Z,43.40
2023-04-09T06:50:30.339Z,43.30
2023-04-09T06:51:32.838Z,43.50
2023-04-09T06:52:35.390Z,43.80
2023-04-09T06:53:40.623Z,41.00
2023-04-09T06:54:44.064Z,40.50
2023-04-09T06:55:46.490Z,40.60
2023-04-09T06:56:48.855Z,41.10
2023-04-09T06:57:51.632Z,41.80
2023-04-09T06:58:54.305Z,41.50
2023-04-09T06:59:56.792Z,40.80
2023-04-09T07:01:00.128Z,41.60
2023-04-09T07:02:03.139Z,42.50
2023-04-09T07:03:08.151Z,43.20
2023-04-09T07:04:14.130Z,43.30
2023-04-09T07:05:16.708Z,43.70
2023-04-09T07:06:19.140Z,43.00
2023-04-09T07:07:23.750Z,42.90
2023-04-09T07:08:28.566Z,42.80
2023-04-09T07:09:31.561Z,42.80
2023-04-09T07:10:34.055Z,42.80
2023-04-09T07:11:36.905Z,43.20
2023-04-09T07:12:39.313Z,43.40
2023-04-09T07:13:41.777Z,42.80
2023-04-09T07:14:44.229Z,42.80
2023-04-09T07:15:46.651Z,42.70
2023-04-09T07:16:49.096Z,42.80
2023-04-09T07:17:51.714Z,42.90
2023-04-09T07:18:54.265Z,43.20
2023-04-09T07:19:56.787Z,42.80
2023-04-09T07:20:59.457Z,42.90
2023-04-09T07:22:01.962Z,42.90
2023-04-09T07:23:04.514Z,42.80
2023-04-09T07:24:07.403Z,42.90
2023-04-09T07:25:10.489Z,42.90
2023-04-09T07:26:12.912Z,42.90
2023-04-09T07:27:16.568Z,42.90
2023-04-09T07:28:21.116Z,43.20
2023-04-09T07:29:24.136Z,42.50
2023-04-09T07:33:39.364Z,42.10
2023-04-09T07:34:44.877Z,42.30
2023-04-09T07:35:47.472Z,42.90
2023-04-09T07:36:50.222Z,42.90
2023-04-09T07:37:52.599Z,42.80
2023-04-09T07:38:56.581Z,42.90
2023-04-09T07:39:59.346Z,43.20
2023-04-09T07:41:01.990Z,43.40
2023-04-09T07:42:06.099Z,43.30
2023-04-09T07:43:08.573Z,43.40
2023-04-09T07:44:11.283Z,43.00
2023-04-09T07:45:13.826Z,43.00
2023-04-09T07:46:22.949Z,43.20
2023-04-09T07:47:26.177Z,43.00
2023-04-09T07:48:28.949Z,43.00
2023-04-09T07:49:31.518Z,43.50
2023-04-09T07:52:06.803Z,43.30
2023-04-09T07:53:09.369Z,43.30
2023-04-09T07:54:11.834Z,42.90
2023-04-09T07:55:16.268Z,42.90
2023-04-09T07:56:19.617Z,42.70
2023-04-09T07:57:22.084Z,42.70
2023-04-09T07:58:25.026Z,42.80
2023-04-09T07:59:28.058Z,42.70
2023-04-09T08:00:30.684Z,42.80
2023-04-09T08:01:33.124Z,42.70
2023-04-09T08:02:36.043Z,42.80
2023-04-09T08:03:38.637Z,42.80
2023-04-09T08:04:41.294Z,42.90
2023-04-09T08:05:45.867Z,43.00
2023-04-09T08:06:50.799Z,43.10
2023-04-09T08:07:53.388Z,43.00
2023-04-09T08:08:56.787Z,43.10
2023-04-09T08:09:59.390Z,43.30
2023-04-09T08:12:39.769Z,43.10
2023-04-09T08:13:42.064Z,43.20
2023-04-09T08:14:44.359Z,43.30
2023-04-09T08:15:46.766Z,43.20
2023-04-09T08:16:50.534Z,43.30
2023-04-09T08:17:53.474Z,43.40
2023-04-09T08:18:56.624Z,43.30
2023-04-09T08:20:00.735Z,43.40
2023-04-09T08:28:14.721Z,43.60
2023-04-09T08:29:29.060Z,43.60
2023-04-09T08:30:50.298Z,43.50
2023-04-09T08:31:52.819Z,43.50
2023-04-09T08:32:55.586Z,43.60
2023-04-09T08:33:58.204Z,43.80
2023-04-09T08:35:00.883Z,41.60
2023-04-09T08:36:07.854Z,39.60
2023-04-09T08:37:10.401Z,39.90
2023-04-09T08:38:15.848Z,41.80
2023-04-09T08:39:21.461Z,42.50
2023-04-09T08:43:15.601Z,41.90
2023-04-09T08:44:18.622Z,42.70
2023-04-09T08:45:21.021Z,42.80
2023-04-09T08:46:24.377Z,43.20
2023-04-09T08:47:27.745Z,43.20
2023-04-09T08:48:30.231Z,43.30
2023-04-09T08:49:33.503Z,43.20
2023-04-09T08:50:36.775Z,43.30
2023-04-09T08:51:40.319Z,43.40
2023-04-09T08:52:45.989Z,43.40
2023-04-09T08:53:53.560Z,43.40
2023-04-09T08:54:56.267Z,43.50
2023-04-09T08:56:00.442Z,43.50
2023-04-09T08:57:07.516Z,43.40
2023-04-09T08:58:10.854Z,43.50
2023-04-09T08:59:21.005Z,43.50
2023-04-09T09:00:24.338Z,43.50
2023-04-09T09:01:29.041Z,43.50
2023-04-09T09:02:32.233Z,43.60
2023-04-09T09:03:59.368Z,43.60
2023-04-09T09:05:01.964Z,43.60
2023-04-09T09:06:04.454Z,43.60
2023-04-09T09:07:09.883Z,44.20
2023-04-09T09:08:33.290Z,44.00
2023-04-09T09:09:58.730Z,44.00
2023-04-09T09:14:19.452Z,44.00
2023-04-09T09:15:27.872Z,44.00
2023-04-09T09:16:31.274Z,44.10
2023-04-09T09:17:52.802Z,44.10
2023-04-09T09:18:58.634Z,44.10
2023-04-09T09:20:19.943Z,44.20
2023-04-09T09:21:22.928Z,44.40
2023-04-09T09:22:25.904Z,44.40
2023-04-09T09:23:37.891Z,44.40
2023-04-09T09:24:50.404Z,44.20
2023-04-09T09:25:53.036Z,44.20
2023-04-09T09:26:55.815Z,44.10
2023-04-09T09:28:11.515Z,44.00
2023-04-09T09:29:13.935Z,44.50
2023-04-09T09:30:25.010Z,44.00
2023-04-09T09:31:27.571Z,44.10
2023-04-09T09:32:30.730Z,44.10
2023-04-09T09:33:33.970Z,44.10
2023-04-09T09:34:36.517Z,44.00
2023-04-09T09:35:49.434Z,44.20
2023-04-09T09:36:51.897Z,44.10
2023-04-09T09:38:04.895Z,44.10
2023-04-09T09:39:12.026Z,44.10
2023-04-09T09:46:31.771Z,44.20
2023-04-09T09:47:35.464Z,44.30
2023-04-09T09:48:39.367Z,44.40
2023-04-09T09:49:41.927Z,44.70
2023-04-09T09:50:46.612Z,44.50
2023-04-09T09:51:49.066Z,44.50
2023-04-09T09:52:57.108Z,42.50
2023-04-09T09:53:59.929Z,38.80
2023-04-09T09:55:05.344Z,40.90
2023-04-09T09:56:15.731Z,40.90
2023-04-09T09:57:20.035Z,40.00
2023-04-09T09:58:32.050Z,40.80
2023-04-09T09:59:40.411Z,40.40
2023-04-09T10:00:44.781Z,38.90
2023-04-09T10:01:51.817Z,38.70
2023-04-09T10:03:03.145Z,41.20
2023-04-09T10:04:06.358Z,42.40
2023-04-09T10:05:09.183Z,42.50
2023-04-09T10:06:13.061Z,42.80
2023-04-09T10:07:16.160Z,42.80
2023-04-09T10:08:19.423Z,43.10
2023-04-09T10:09:23.285Z,43.40
2023-04-09T10:10:27.224Z,43.40
2023-04-09T10:11:31.804Z,43.60
2023-04-09T10:12:34.660Z,43.30
2023-04-09T10:13:43.536Z,43.70
2023-04-09T10:14:46.414Z,43.60
2023-04-09T10:15:49.437Z,43.80
2023-04-09T10:16:52.275Z,43.50
2023-04-09T10:17:56.300Z,43.70
2023-04-09T10:19:02.110Z,43.80
2023-04-09T10:20:41.787Z,43.80
2023-04-09T10:22:05.634Z,43.80
2023-04-09T10:23:17.336Z,43.80
2023-04-09T10:24:20.195Z,43.80
2023-04-09T10:25:22.614Z,43.80
2023-04-09T10:26:30.860Z,43.90
2023-04-09T10:27:33.520Z,43.80
2023-04-09T10:28:40.840Z,43.80
2023-04-09T10:29:45.692Z,43.80
2023-04-09T10:30:48.202Z,43.90
2023-04-09T10:32:06.770Z,43.80
2023-04-09T10:33:14.384Z,43.90
2023-04-09T10:34:19.247Z,43.90
2023-04-09T10:35:28.165Z,43.90
2023-04-09T10:36:31.493Z,44.00
2023-04-09T10:37:36.059Z,43.90
2023-04-09T10:38:41.475Z,43.80
2023-04-09T10:39:48.042Z,43.80
2023-04-09T10:40:53.461Z,43.80
2023-04-09T10:42:00.100Z,44.00
2023-04-09T10:43:03.913Z,43.80
2023-04-09T10:44:07.373Z,44.10
2023-04-09T10:45:15.029Z,44.00
2023-04-09T10:46:34.486Z,43.90
2023-04-09T10:47:39.702Z,43.80
2023-04-09T10:48:43.741Z,44.20
2023-04-09T10:49:46.157Z,44.00
2023-04-09T10:50:54.383Z,43.70
2023-04-09T10:52:02.918Z,43.80
2023-04-09T10:53:05.255Z,43.10
2023-04-09T10:54:34.721Z,43.70
2023-04-09T10:55:38.375Z,43.70
2023-04-09T10:56:40.885Z,43.70
2023-04-09T10:57:43.399Z,43.80
2023-04-09T10:58:45.709Z,43.90
2023-04-09T10:59:52.138Z,43.80
2023-04-09T11:00:54.577Z,43.70
2023-04-09T11:01:56.982Z,43.70
2023-04-09T11:03:13.465Z,43.70
2023-04-09T11:04:20.422Z,43.60
2023-04-09T11:05:34.121Z,43.70
2023-04-09T11:06:40.247Z,43.80
2023-04-09T11:07:51.855Z,43.70
2023-04-09T11:08:56.925Z,43.60
2023-04-09T11:09:59.478Z,43.70
2023-04-09T11:11:02.657Z,43.80
2023-04-09T11:12:05.285Z,43.70
2023-04-09T11:13:17.722Z,43.80
2023-04-09T11:14:20.590Z,43.80
2023-04-09T11:15:22.980Z,43.80
2023-04-09T11:16:27.902Z,43.80
2023-04-09T11:17:36.687Z,43.70
2023-04-09T11:18:39.730Z,43.70
2023-04-09T11:19:42.072Z,43.80
2023-04-09T11:20:44.815Z,43.60
2023-04-09T11:21:48.347Z,43.90
2023-04-09T11:22:53.201Z,43.80
2023-04-09T11:23:55.667Z,43.70
2023-04-09T11:24:57.877Z,43.70
2023-04-09T11:26:01.779Z,43.80
2023-04-09T11:27:04.432Z,43.80
2023-04-09T11:28:08.081Z,43.80
2023-04-09T11:29:10.653Z,43.70
2023-04-09T11:30:13.174Z,43.70
2023-04-09T11:31:16.855Z,43.70
2023-04-09T11:32:19.353Z,43.80
2023-04-09T11:33:22.404Z,43.80
2023-04-09T11:34:28.450Z,43.80
2023-04-09T11:35:33.860Z,43.80
2023-04-09T11:36:36.491Z,43.70
2023-04-09T11:37:41.209Z,43.60
2023-04-09T11:38:43.651Z,43.70
2023-04-09T11:39:51.533Z,43.80
2023-04-09T11:40:57.995Z,43.90
2023-04-09T11:42:00.799Z,43.80
2023-04-09T11:43:03.450Z,43.70
2023-04-09T11:44:06.114Z,43.70
2023-04-09T11:45:10.517Z,43.70
2023-04-09T11:46:12.973Z,43.70
2023-04-09T11:47:18.635Z,43.70
2023-04-09T11:48:23.306Z,43.70
2023-04-09T11:49:25.964Z,43.70
2023-04-09T11:50:28.578Z,43.60
2023-04-09T11:51:32.629Z,43.80
2023-04-09T11:52:38.444Z,44.00
2023-04-09T11:53:41.053Z,43.70
2023-04-09T11:54:49.311Z,43.80
2023-04-09T11:55:54.123Z,43.10
2023-04-09T11:56:58.651Z,43.20
2023-04-09T11:58:01.679Z,39.90
2023-04-09T11:59:04.444Z,38.20
2023-04-09T12:00:14.325Z,40.10
2023-04-09T12:01:17.261Z,39.20
2023-04-09T12:02:20.148Z,38.40
2023-04-09T12:03:31.346Z,38.70
2023-04-09T12:04:34.738Z,40.50
2023-04-09T12:05:39.099Z,41.50
2023-04-09T12:06:43.399Z,42.30
2023-04-09T12:07:55.645Z,40.60
2023-04-09T12:08:59.669Z,42.20
2023-04-09T12:10:10.421Z,40.70
2023-04-09T12:11:15.477Z,39.60
2023-04-09T12:12:24.029Z,40.60
2023-04-09T12:13:34.004Z,38.40
2023-04-09T12:14:36.659Z,39.00
2023-04-09T12:15:41.798Z,39.70
2023-04-09T12:16:45.646Z,37.90
2023-04-09T12:17:50.441Z,37.80
2023-04-09T12:18:55.907Z,38.90
2023-04-09T12:19:58.410Z,39.70
2023-04-09T12:21:02.590Z,39.60
2023-04-09T12:22:05.706Z,39.60
2023-04-09T12:23:10.117Z,37.10
2023-04-09T12:24:14.930Z,36.60
2023-04-09T12:25:17.576Z,36.40
2023-04-09T12:26:19.971Z,37.00
2023-04-09T12:27:22.529Z,35.60
2023-04-09T12:28:25.909Z,36.90
2023-04-09T12:29:29.875Z,38.10
2023-04-09T12:30:33.666Z,37.00
2023-04-09T12:31:36.781Z,37.10
2023-04-09T12:32:39.520Z,36.10
2023-04-09T12:33:42.773Z,34.70
2023-04-09T12:34:47.433Z,35.30
2023-04-09T12:35:50.061Z,35.30
2023-04-09T12:36:53.660Z,35.10
2023-04-09T12:37:56.227Z,35.40
2023-04-09T12:38:58.728Z,36.00
2023-04-09T12:40:04.627Z,34.30
2023-04-09T12:41:07.214Z,35.50
2023-04-09T12:42:10.022Z,34.30
2023-04-09T12:43:12.632Z,35.50
2023-04-09T12:44:15.226Z,35.50
2023-04-09T12:45:19.486Z,35.30
2023-04-09T12:46:22.152Z,35.70
2023-04-09T12:47:25.719Z,36.30
2023-04-09T12:48:28.535Z,36.80
2023-04-09T12:50:56.854Z,37.70
2023-04-09T12:52:00.495Z,36.00
2023-04-09T12:53:03.401Z,36.40
2023-04-09T12:54:06.026Z,37.50
2023-04-09T12:55:09.744Z,38.30
2023-04-09T12:56:12.566Z,39.00
2023-04-09T12:57:15.544Z,39.00
2023-04-09T12:58:18.103Z,39.20
2023-04-09T12:59:20.784Z,40.00
2023-04-09T13:00:23.272Z,39.90
2023-04-09T13:01:26.040Z,39.80
2023-04-09T13:02:28.761Z,40.00
2023-04-09T13:03:31.524Z,40.00
2023-04-09T13:04:34.359Z,40.00
2023-04-09T13:05:36.977Z,40.00
2023-04-09T13:06:39.447Z,40.00
2023-04-09T13:07:43.495Z,40.00
2023-04-09T13:08:46.158Z,40.00
2023-04-09T13:09:52.344Z,40.10
2023-04-09T13:10:54.841Z,40.10
2023-04-09T13:11:57.323Z,40.10
2023-04-09T13:12:59.808Z,40.20
2023-04-09T13:14:02.183Z,40.60
2023-04-09T13:15:05.076Z,40.70
2023-04-09T13:16:08.078Z,40.80
2023-04-09T13:17:10.978Z,40.60
2023-04-09T13:18:14.009Z,40.50
2023-04-09T13:19:17.114Z,40.60
2023-04-09T13:22:03.242Z,40.40
2023-04-09T13:23:08.960Z,40.40
2023-04-09T13:24:14.152Z,40.50
2023-04-09T13:25:16.918Z,40.40
2023-04-09T13:26:19.701Z,40.60
2023-04-09T13:27:22.218Z,40.60
2023-04-09T13:28:24.742Z,40.60
2023-04-09T13:29:29.223Z,40.60
2023-04-09T13:30:31.989Z,40.90
2023-04-09T13:31:36.394Z,40.70
2023-04-09T13:32:38.972Z,40.70
2023-04-09T13:33:41.438Z,40.90
2023-04-09T13:34:43.934Z,40.90
2023-04-09T13:35:46.777Z,40.90
2023-04-09T13:36:49.430Z,41.00
2023-04-09T13:37:52.062Z,41.00
2023-04-09T13:38:54.929Z,41.20
2023-04-09T13:39:57.650Z,41.10
2023-04-09T13:41:01.006Z,41.30
2023-04-09T13:42:12.586Z,41.20
2023-04-09T13:43:16.218Z,41.20
2023-04-09T13:44:18.621Z,41.30
2023-04-09T13:45:23.974Z,41.40
2023-04-09T13:46:28.067Z,41.40
2023-04-09T13:47:30.729Z,41.50
2023-04-09T13:48:34.808Z,41.30
2023-04-09T13:49:37.287Z,41.50
2023-04-09T13:50:39.754Z,36.70
2023-04-09T13:51:42.130Z,36.30
2023-04-09T13:52:44.505Z,35.70
2023-04-09T13:53:48.289Z,35.80
2023-04-09T13:54:53.422Z,35.60
2023-04-09T13:55:56.379Z,33.80
2023-04-09T13:56:59.911Z,34.30
2023-04-09T13:58:04.804Z,35.90
2023-04-09T13:59:07.666Z,36.40
2023-04-09T14:00:10.497Z,34.80
2023-04-09T14:01:13.541Z,34.90
2023-04-09T14:02:17.971Z,35.10
2023-04-09T14:03:21.268Z,35.80
2023-04-09T14:04:24.052Z,35.10
2023-04-09T14:05:27.559Z,36.70
2023-04-09T14:06:30.105Z,35.30
2023-04-09T14:07:32.672Z,34.60
2023-04-09T14:08:35.875Z,35.40
2023-04-09T14:09:38.203Z,34.20
2023-04-09T14:10:40.804Z,34.20
2023-04-09T14:11:43.234Z,34.80
2023-04-09T14:12:46.069Z,34.90
2023-04-09T14:13:48.689Z,35.70
2023-04-09T14:14:51.686Z,36.80
2023-04-09T14:15:54.097Z,35.90
2023-04-09T14:16:56.794Z,34.70
2023-04-09T14:17:59.788Z,35.20
2023-04-09T14:19:02.386Z,35.00
2023-04-09T14:20:05.131Z,34.70
2023-04-09T14:21:10.254Z,35.50
2023-04-09T14:22:13.059Z,35.10
2023-04-09T14:23:15.777Z,34.30
2023-04-09T14:24:20.022Z,34.30
2023-04-09T14:25:22.520Z,35.70
2023-04-09T14:26:24.950Z,35.30
2023-04-09T14:27:27.371Z,34.70
2023-04-09T14:28:30.256Z,35.30
2023-04-09T14:29:33.020Z,35.20
2023-04-09T14:30:35.547Z,35.10
2023-04-09T14:31:38.014Z,34.70
2023-04-09T14:32:40.506Z,34.20
2023-04-09T14:33:42.986Z,35.00
2023-04-09T14:34:45.628Z,35.40
2023-04-09T14:35:48.184Z,33.90
2023-04-09T14:36:50.564Z,34.20
2023-04-09T14:37:52.976Z,33.80
2023-04-09T14:38:57.859Z,34.00
2023-04-09T14:40:01.019Z,34.40
2023-04-09T14:41:03.538Z,34.00
2023-04-09T14:42:08.547Z,33.60
2023-04-09T14:43:11.134Z,34.10
2023-04-09T14:44:13.538Z,34.60
2023-04-09T14:45:16.692Z,33.80
2023-04-09T14:46:22.351Z,34.00